Nearby METAR Reports

 

EBAW - Antwerpen, Belgium
Distance from station: NW 22km
Updated: 2021-02-25 11:20
Clear
Clear
 Wind from WSW
Wind: WSW 15 km/h
Temperature: 15°C
Dew Point: 7°C
Humidity: 59%
Barometer: 1027 hPa
Summary: Clear
Visibility: greater than 10 km
2021/02/25 10:20 EBAW 251020Z 24008KT CAVOK 15/07 Q1027 NOSIG
EBBR - Brussel, Belgium
Distance from station: SW 24km
Updated: 2021-02-25 11:20
Clear
Clear
 Wind from SW
Wind: SW 13 km/h
Temperature: 15°C
Dew Point: 9°C
Humidity: 68%
Barometer: 1027 hPa
Summary: Clear
Visibility: greater than 10 km
2021/02/25 10:20 EBBR 251020Z 23007KT 210V270 CAVOK 15/09 Q1027 NOSIG
 
EBDT - Schaffen, Belgium
Distance from station: ESE 26km
Updated: 2021-02-25 11:25
Overcast
Overcast
 Wind from SW
Wind: SW 7 km/h
Temperature: 14°C
Dew Point: 8°C
Humidity: 67%
Barometer: 1027 hPa
Clouds: Overcast
Visibility: 10 km
Cloud details: Overcast 1524 m
2021/02/25 10:25 EBDT 251025Z AUTO 22004KT 9999 OVC050/// 14/08 Q1027 BLU
EBBE - Beauvechain, Belgium
Distance from station: S 36km
Updated: 2021-02-25 11:25
Mostly cloudy
Mostly cloudy
 Wind from SSW
Wind: SSW 19 km/h
Temperature: 15°C
Dew Point: 8°C
Humidity: 63%
Barometer: 1026 hPa
Clouds: Mostly cloudy
Visibility: 10 km
Cloud details: Few Clouds 1219 m
Mostly cloudy 8534 m
2021/02/25 10:25 EBBE 251025Z 21010KT 9999 FEW040 BKN280 15/08 Q1026 BLU BLU
 
EHWO - Woensdrecht Rnla, Netherlands
Distance from station: NNW 50km
Updated: 2021-02-25 11:25
Clear
Clear
 Wind from SW
Wind: SW 17 km/h
Temperature: 15°C
Dew Point: 8°C
Humidity: 63%
Barometer: 1026 hPa
Clouds: Clear
Visibility: 10 km
2021/02/25 10:25 EHWO 251025Z AUTO 22009KT 200V260 9999 NCD 15/08 Q1026 BLU
EBBL - Kleine-Brogel, Belgium
Distance from station: ENE 54km
Updated: 2021-02-25 11:25
Mostly cloudy
Mostly cloudy
 Wind from SW
Wind: SW 15 km/h
Temperature: 15°C
Dew Point: 8°C
Humidity: 63%
Barometer: 1026 hPa
Clouds: Mostly cloudy
Visibility: 10 km
Cloud details: Mostly cloudy 9144 m
2021/02/25 10:25 EBBL 251025Z 22008KT 9999 BKN300 15/08 Q1026 BLU BLU
 
EHGR - Gilze-Rijen Rnla, Netherlands
Distance from station: NNE 57km
Updated: 2021-02-25 11:25
Mostly cloudy
Mostly cloudy
 Wind from SW
Wind: SW 11 km/h
Temperature: 15°C
Dew Point: 8°C
Humidity: 63%
Barometer: 1026 hPa
Clouds: Mostly cloudy
Visibility: 10 km
Cloud details: Mostly cloudy 8839 m
2021/02/25 10:25 EHGR 251025Z AUTO 23006KT 180V260 9999 BKN290 15/08 Q1026 BLU NOSIG
EHEH - Eindhoven Rnlafb, Netherlands
Distance from station: NE 63km
Updated: 2021-02-25 11:25
Mostly cloudy
Mostly cloudy
 Wind from SSW
Wind: SSW 17 km/h
Temperature: 16°C
Dew Point: 8°C
Humidity: 59%
Barometer: 1026 hPa
Clouds: Mostly cloudy
Visibility: 10 km
Cloud details: Mostly cloudy 8534 m
2021/02/25 10:25 EHEH 251025Z AUTO 21009KT 180V250 9999 BKN280 16/08 Q1026 BLU NOSIG
 
EBCI - Charleroi, Belgium
Distance from station: SSW 70km
Updated: 2021-02-25 11:20
Clear
Clear
 Wind from S
Wind: S 17 km/h
Temperature: 15°C
Dew Point: 7°C
Humidity: 59%
Barometer: 1027 hPa
Summary: Clear
Visibility: greater than 10 km
2021/02/25 10:20 EBCI 251020Z 19009KT CAVOK 15/07 Q1027 NOSIG
EBLG - Bierset, Belgium
Distance from station: SE 72km
Updated: 2021-02-25 11:20
Clear
Clear
 Wind from SSW
Wind: SSW 19 km/h
Temperature: 16°C
Dew Point: 7°C
Humidity: 55%
Barometer: 1027 hPa
Summary: Clear
Visibility: greater than 10 km
2021/02/25 10:20 EBLG 251020Z 20010KT CAVOK 16/07 Q1027 NOSIG
Benelux Weer Netwerk cwop awekas hwa wcloud pwsweather wow wow